• Join FlightAware (Why Join?)
  • Login
  • US Flag 
03:54PM EDT


 

Airport Tracker/Info


-or-


 

Live Flight TrackerFlight Track Log ✈ EJA396 ✈ 12-Dec-2013 ✈ KPSP - KVRB

Flight Track Log - Related Links

Times and Time Zones

All times are in EST time to prevent confusion due to time zone crossing. See the EJA396 flight status page for this flight to view local times or setup timezone preferences in your user account.

Time Position Orientation Groundspeed Altitude Reporting Facility
EST Latitude Longitude Course Direction KTS MPH feet Rate Location/Type
06:09PM 33.8833 -116.5592 17° North 253 291 41,000  Level Los Angeles Center
06:10PM 33.9372 -116.5394 17° North 265 305 41,000 -15,300 Level Los Angeles Center
06:11PM 33.8936 -116.4597 123° Southeast 299 344 9,500 -13,980 Descending Los Angeles Center
06:12PM 33.8514 -116.3850 124° Southeast 297 342 12,200 2,220 Climbing Los Angeles Center
06:13PM 33.8081 -116.2844 117° Southeast 335 386 14,200 2,640 Climbing Los Angeles Center
06:14PM 33.7792 -116.1397 103° East 377 434 17,800 3,240 Climbing Los Angeles Center
06:15PM 33.7622 -116.0139 99° East 379 436 20,900 2,460 Climbing Los Angeles Center
06:16PM 33.7467 -115.8875 98° East 382 440 23,000 1,680 Climbing Los Angeles Center
06:17PM 33.7267 -115.7564 100° East 395 455 24,400 1,980 Climbing Los Angeles Center
06:18PM 33.7081 -115.6381 101° East 368 423 27,100 1,920 Climbing Los Angeles Center
06:19PM 33.6872 -115.5106 101° East 385 443 28,400 1,200 Climbing Los Angeles Center
06:20PM 33.6403 -115.3511 109° East 424 488 29,600 1,080 Climbing Los Angeles Center
06:21PM 33.6086 -115.2081 105° East 442 509 30,700 1,140 Climbing Los Angeles Center
06:23PM 33.5761 -115.0289 102° East 455 524 32,300 1,320 Climbing Los Angeles Center
06:24PM 33.5483 -114.8808 103° East 455 524 33,800 1,440 Climbing Los Angeles Center
06:25PM 33.5025 -114.7336 110° East 464 534 35,300 1,380 Climbing Los Angeles Center
06:26PM 33.4708 -114.5931 105° East 450 518 36,700 960 Climbing Los Angeles Center
06:27PM 33.4233 -114.4186 108° East 459 528 37,300 540 Climbing Los Angeles Center
06:27PM 33.4103 -114.3183 99° East 470 541 37,600 480 Climbing Albuquerque Center
06:28PM 33.3833 -114.1611 102° East 480 552 38,100 480 Climbing Albuquerque Center
06:29PM 33.3583 -114.0017 101° East 486 559 38,600 480 Climbing Albuquerque Center
06:30PM 33.3303 -113.8428 102° East 488 562 39,100 480 Climbing Albuquerque Center
06:31PM 33.3144 -113.7558 102° East 486 559 39,400 540 Climbing Los Angeles Center
06:32PM 33.2800 -113.5639 102° East 490 564 40,000 480 Climbing Los Angeles Center
06:33PM 33.2533 -113.4033 101° East 492 566 40,500 480 Climbing Los Angeles Center
06:34PM 33.2258 -113.2364 101° East 492 566 41,000 180 Climbing Los Angeles Center
06:35PM 33.1983 -113.0758 102° East 492 566 41,000  Level Los Angeles Center
06:37PM 33.1586 -112.8417 101° East 501 577 41,000  Level Albuquerque Center
06:38PM 33.1292 -112.6778 102° East 503 579 41,000  Level Albuquerque Center
06:39PM 33.1006 -112.5156 102° East 501 577 41,000  Level Albuquerque Center
06:40PM 33.0719 -112.3542 102° East 497 572 41,000  Level Albuquerque Center
06:41PM 33.0403 -112.1783 102° East 496 571 41,000  Level Albuquerque Center
06:42PM 33.0111 -112.0189 102° East 495 570 41,000  Level Albuquerque Center
06:43PM 32.9825 -111.8608 102° East 492 566 41,000  Level Albuquerque Center
06:44PM 32.9528 -111.7025 103° East 493 567 41,000  Level Albuquerque Center
06:45PM 32.9242 -111.5439 102° East 493 567 41,000  Level Albuquerque Center
06:46PM 32.8878 -111.3550 103° East 492 566 41,000  Level Albuquerque Center
06:47PM 32.8586 -111.1956 102° East 495 570 41,000  Level Albuquerque Center
06:48PM 32.8281 -111.0372 103° East 494 568 41,000  Level Albuquerque Center
06:49PM 32.7983 -110.8794 103° East 492 566 41,000  Level Albuquerque Center
06:50PM 32.7678 -110.7208 103° East 495 570 41,000  Level Albuquerque Center
06:51PM 32.7300 -110.5328 103° East 497 572 41,000  Level Albuquerque Center
06:52PM 32.6994 -110.3744 103° East 496 571 41,000  Level Albuquerque Center
06:53PM 32.6675 -110.2158 103° East 496 571 41,000  Level Albuquerque Center
06:54PM 32.6358 -110.0592 103° East 492 566 41,000  Level Albuquerque Center
06:55PM 32.6047 -109.9028 103° East 491 565 41,000  Level Albuquerque Center
06:56PM 32.5722 -109.7472 104° East 489 563 41,000  Level Albuquerque Center
06:57PM 32.5383 -109.5894 104° East 496 571 41,000  Level Albuquerque Center
06:58PM 32.5008 -109.4031 103° East 491 565 41,000  Level Albuquerque Center
06:59PM 32.4686 -109.2486 104° East 489 563 41,000  Level Albuquerque Center
07:00PM 32.4364 -109.0933 104° East 490 564 41,000  Level Albuquerque Center
07:01PM 32.4042 -108.9381 104° East 491 565 41,000  Level Albuquerque Center
07:02PM 32.3714 -108.7833 104° East 489 563 41,000  Level Albuquerque Center
07:03PM 32.3331 -108.5978 104° East 489 563 41,000  Level Albuquerque Center
07:04PM 32.2994 -108.4450 105° East 490 564 41,000  Level Albuquerque Center
07:05PM 32.2656 -108.2872 104° East 496 571 41,000  Level Albuquerque Center
07:06PM 32.2317 -108.1308 104° East 495 570 41,000  Level Albuquerque Center
07:07PM 32.1978 -107.9753 104° East 493 567 41,000  Level Albuquerque Center
07:09PM 32.1644 -107.8178 104° East 496 571 41,000  Level Albuquerque Center
07:10PM 32.1222 -107.6306 105° East 497 572 41,000  Level Albuquerque Center
07:11PM 32.0881 -107.4739 104° East 497 572 41,000  Level Albuquerque Center
07:12PM 32.0536 -107.3189 105° East 497 572 41,000  Level Albuquerque Center
07:13PM 32.0194 -107.1653 105° East 492 566 41,000  Level Albuquerque Center
07:14PM 31.9850 -107.0108 105° East 493 567 41,000  Level Albuquerque Center
07:15PM 31.9503 -106.8583 105° East 490 564 41,000  Level Albuquerque Center
07:16PM 31.9078 -106.6764 105° East 486 559 41,000  Level Albuquerque Center
07:17PM 31.8711 -106.5197 105° East 488 562 41,000  Level Albuquerque Center
07:18PM 31.8378 -106.3636 104° East 491 565 41,000  Level Albuquerque Center
07:19PM 31.8156 -106.2056 99° East 501 577 41,000  Level Albuquerque Center
07:20PM 31.8044 -106.0436 95° East 498 573 41,000  Level Albuquerque Center
07:21PM 31.7964 -105.8803 93° East 499 574 41,000  Level Albuquerque Center
07:22PM 31.7883 -105.7144 93° East 505 581 41,000  Level Albuquerque Center
07:23PM 31.7803 -105.5483 93° East 507 583 41,000  Level Albuquerque Center
07:24PM 31.7706 -105.3494 93° East 506 582 41,000  Level Albuquerque Center
07:25PM 31.7614 -105.1861 94° East 502 578 41,000  Level Albuquerque Center
07:26PM 31.7572 -105.0200 92° East 505 581 41,000  Level Albuquerque Center
07:27PM 31.7700 -104.8517 85° East 512 589 41,000  Level Albuquerque Center
07:28PM 31.7817 -104.6858 85° East 510 587 41,000  Level Albuquerque Center
07:29PM 31.7942 -104.5183 85° East 512 589 41,000  Level Albuquerque Center
07:30PM 31.8047 -104.3506 86° East 514 592 41,000  Level Albuquerque Center
07:31PM 31.8164 -104.1822 85° East 515 593 41,000  Level Albuquerque Center
07:32PM 31.8281 -104.0144 85° East 515 593 41,000  Level Albuquerque Center
07:33PM 31.8403 -103.8136 86° East 513 590 41,000  Level Albuquerque Center
07:34PM 31.8517 -103.6550 85° East 515 593 41,000  Level Albuquerque Center
07:35PM 31.8617 -103.4883 86° East 515 593 41,000  Level Albuquerque Center
07:36PM 31.8708 -103.3206 86° East 516 594 41,000  Level Albuquerque Center
07:37PM 31.8753 -103.1531 88° East 518 596 41,000  Level Albuquerque Center
07:38PM 31.8717 -102.9756 91° East 520 598 41,000  Level Albuquerque Center
07:39PM 31.8689 -102.7717 91° East 519 597 41,000  Level Albuquerque Center
07:40PM 31.8650 -102.6014 91° East 520 598 41,000  Level Albuquerque Center
07:41PM 31.8625 -102.4475 91° East 518 596 41,000  Level Albuquerque Center
07:42PM 31.8594 -102.2794 91° East 519 597 41,000  Level Albuquerque Center
07:43PM 31.8558 -102.1100 91° East 522 601 41,000  Level Albuquerque Center
07:45PM 31.8511 -101.8853 91° East 515 593 41,000  Level Fort Worth Center
07:46PM 31.8469 -101.7147 92° East 518 596 41,000  Level Fort Worth Center
07:47PM 31.8414 -101.5117 92° East 516 594 41,000  Level Fort Worth Center
07:48PM 31.8364 -101.3425 92° East 517 595 41,000  Level Fort Worth Center
07:49PM 31.8331 -101.1753 91° East 513 590 41,000  Level Fort Worth Center
07:50PM 31.8286 -101.0064 92° East 514 592 41,000  Level Fort Worth Center
07:51PM 31.8236 -100.8386 92° East 515 593 41,000  Level Fort Worth Center
07:52PM 31.8169 -100.6697 93° East 517 595 41,000  Level Fort Worth Center
07:53PM 31.8122 -100.4839 92° East 517 595 41,000  Level Fort Worth Center
07:54PM 31.8053 -100.3158 93° East 517 595 41,000  Level Fort Worth Center
07:55PM 31.8000 -100.1492 92° East 513 590 41,000  Level Fort Worth Center
07:56PM 31.7917 -99.9475 93° East 517 595 41,000  Level Fort Worth Center
07:57PM 31.7842 -99.7817 93° East 513 590 41,000  Level Fort Worth Center
07:58PM 31.7781 -99.6147 92° East 515 593 41,000  Level Fort Worth Center
07:59PM 31.7706 -99.4478 93° East 513 590 41,000  Level Fort Worth Center
08:00PM 31.7633 -99.2794 93° East 516 594 41,000  Level Fort Worth Center
08:01PM 31.7553 -99.1106 93° East 519 597 41,000  Level Fort Worth Center
08:02PM 31.7464 -98.9086 93° East 519 597 41,000  Level Fort Worth Center
08:03PM 31.7386 -98.7339 93° East 516 594 41,000  Level Fort Worth Center
08:04PM 31.7294 -98.5644 94° East 515 593 41,000  Level Fort Worth Center
08:05PM 31.7222 -98.3931 93° East 518 596 41,000  Level Fort Worth Center
08:06PM 31.7136 -98.2236 93° East 517 595 41,000  Level Fort Worth Center
08:07PM 31.7056 -98.0539 93° East 515 593 41,000  Level Fort Worth Center
08:09PM 31.6969 -97.8831 93° East 517 595 41,000  Level Fort Worth Center
08:10PM 31.6883 -97.7122 93° East 518 596 41,000  Level Fort Worth Center
08:11PM 31.6769 -97.5131 94° East 518 596 41,000  Level Fort Worth Center
08:12PM 31.6664 -97.3444 94° East 513 590 41,000  Level Fort Worth Center
08:13PM 31.6447 -97.1728 98° East 523 602 41,000  Level Fort Worth Center
08:14PM 31.6181 -97.0308 102° East 518 596 41,000  Level Houston Center
08:15PM 31.5864 -96.8642 103° East 517 595 41,000  Level Houston Center
08:16PM 31.5539 -96.6967 103° East 519 597 41,000  Level Houston Center
08:17PM 31.5225 -96.5294 102° East 519 597 41,000  Level Houston Center
08:18PM 31.4906 -96.3625 103° East 519 597 41,000  Level Houston Center
08:19PM 31.4586 -96.1950 103° East 520 598 41,000  Level Houston Center
08:20PM 31.4239 -96.0175 103° East 522 601 41,000  Level Houston Center
08:21PM 31.3900 -95.8508 103° East 524 603 41,000  Level Houston Center
08:22PM 31.3586 -95.6861 103° East 522 601 41,000  Level Houston Center
08:23PM 31.3256 -95.5206 103° East 523 602 41,000  Level Houston Center
08:24PM 31.2900 -95.3461 103° East 522 601 41,000  Level Houston Center
08:25PM 31.2531 -95.1572 103° East 523 602 41,000  Level Houston Center
08:26PM 31.2189 -94.9922 104° East 524 603 41,000  Level Houston Center
08:27PM 31.1825 -94.8161 104° East 524 603 41,000  Level Houston Center
08:28PM 31.1683 -94.6475 96° East 529 609 41,000  Level Houston Center
08:29PM 31.1747 -94.4756 87° East 515 593 41,000  Level Houston Center
08:30PM 31.1803 -94.3122 88° East 506 582 41,000  Level Houston Center
08:31PM 31.1900 -94.1472 86° East 509 586 41,000  Level Houston Center
08:32PM 31.1983 -93.9814 87° East 512 589 41,000  Level Houston Center
08:33PM 31.2047 -93.8200 87° East 513 590 41,000  Level Houston Center
08:34PM 31.2119 -93.6539 87° East 513 590 41,000  Level Houston Center
08:35PM 31.2211 -93.4533 87° East 513 590 41,000  Level Houston Center
08:36PM 31.2267 -93.2869 88° East 512 589 41,000  Level Houston Center
08:37PM 31.2333 -93.1200 87° East 514 592 41,000  Level Houston Center
08:38PM 31.2403 -92.9533 87° East 514 592 41,000  Level Houston Center
08:39PM 31.2469 -92.7867 87° East 514 592 41,000  Level Houston Center
08:40PM 31.2528 -92.6194 88° East 514 592 41,000  Level Houston Center
08:41PM 31.2561 -92.4494 89° East 518 596 41,000  Level Houston Center
08:42PM 31.2594 -92.2819 89° East 518 596 41,000  Level Houston Center
08:43PM 31.2644 -92.0817 88° East 517 595 41,000  Level Houston Center
08:44PM 31.2722 -91.9197 87° East 510 587 41,000  Level Houston Center
08:45PM 31.2764 -91.7514 88° East 518 596 41,000  Level Houston Center
08:46PM 31.2797 -91.5847 89° East 516 594 41,000  Level Houston Center
08:47PM 31.2839 -91.4167 88° East 518 596 41,000  Level Houston Center
08:49PM 31.2864 -91.2492 89° East 518 596 41,000  Level Houston Center
08:50PM 31.2922 -91.0483 88° East 522 601 41,000  Level Houston Center
08:51PM 31.2956 -90.8792 89° East 522 601 41,000  Level Houston Center
08:52PM 31.2986 -90.7106 89° East 521 600 41,000  Level Houston Center
08:53PM 31.3019 -90.5419 89° East 519 597 41,000  Level Houston Center
08:54PM 31.3039 -90.3739 89° East 517 595 41,000  Level Houston Center
08:55PM 31.2986 -90.2064 92° East 517 595 41,000  Level Houston Center
08:56PM 31.2775 -90.0378 98° East 521 600 41,000  Level Houston Center
08:57PM 31.2456 -89.8736 103° East 518 596 41,000  Level Houston Center
08:58PM 31.2039 -89.6764 104° East 520 598 41,000  Level Houston Center
08:59PM 31.1683 -89.5117 104° East 520 598 41,000  Level Houston Center
09:00PM 31.1319 -89.3464 104° East 523 602 41,000  Level Houston Center
09:01PM 31.0961 -89.1806 104° East 524 603 41,000  Level Houston Center
09:02PM 31.0594 -89.0153 104° East 526 605 41,000  Level Houston Center
09:03PM 31.0225 -88.8419 104° East 523 602 41,000  Level Houston Center
09:04PM 30.9853 -88.6794 105° East 523 602 41,000  Level Houston Center
09:05PM 30.9514 -88.5233 104° East 522 601 41,000  Level Houston Center
09:06PM 30.9144 -88.3597 105° East 522 601 41,000  Level Houston Center
09:07PM 30.8681 -88.1614 105° East 528 608 41,000  Level Houston Center
09:08PM 30.8333 -87.9981 104° East 522 601 41,000  Level Houston Center
09:09PM 30.7961 -87.8342 105° East 523 602 41,000  Level Houston Center
09:10PM 30.7606 -87.6767 105° East 524 603 41,000  Level Houston Center
09:11PM 30.7286 -87.5442 106° East 520 598 41,000  Level Jacksonville Center
09:12PM 30.6906 -87.3806 105° East 520 598 41,000  Level Jacksonville Center
09:13PM 30.6525 -87.2172 105° East 520 598 41,000  Level Jacksonville Center
09:14PM 30.6161 -87.0539 104° East 520 598 41,000  Level Jacksonville Center
09:15PM 30.5792 -86.9050 106° East 520 598 41,000  Level Jacksonville Center
09:16PM 30.5403 -86.7417 105° East 525 604 41,000  Level Jacksonville Center
09:17PM 30.5014 -86.5764 105° East 525 604 41,000  Level Jacksonville Center
09:18PM 30.4622 -86.4133 106° East 519 597 41,000  Level Jacksonville Center
09:19PM 30.4206 -86.2481 106° East 519 597 41,000  Level Jacksonville Center
09:20PM 30.3831 -86.0853 105° East 519 597 41,000  Level Jacksonville Center
09:21PM 30.3431 -85.9278 106° East 519 597 41,000  Level Jacksonville Center
09:22PM 30.3031 -85.7628 106° East 519 597 41,000  Level Jacksonville Center
09:23PM 30.2669 -85.6006 104° East 519 597 41,000  Level Jacksonville Center
09:24PM 30.2200 -85.4478 110° East 519 597 41,000  Level Jacksonville Center
09:25PM 30.1778 -85.2617 105° East 529 609 41,000  Level Jacksonville Center
09:26PM 30.1367 -85.1022 107° East 524 603 41,000  Level Jacksonville Center
09:27PM 30.0978 -84.9406 106° East 519 597 41,000  Level Jacksonville Center
09:28PM 30.0542 -84.7811 108° East 519 597 41,000  Level Jacksonville Center
09:29PM 30.0106 -84.6219 108° East 519 597 41,000  Level Jacksonville Center
09:30PM 29.9728 -84.4631 105° East 519 597 41,000 -300 Level Jacksonville Center
09:31PM 29.9308 -84.3019 107° East 514 592 40,500 -600 Descending Jacksonville Center
09:32PM 29.8947 -84.1622 107° East 514 592 39,800 -780 Descending Jacksonville Center
09:33PM 29.8525 -84.0036 107° East 514 592 39,000 -420 Descending Jacksonville Center
09:34PM 29.8119 -83.8431 106° East 519 597 39,000 -300 Level Jacksonville Center
09:35PM 29.7608 -83.6822 110° East 519 597 38,500 -540 Descending Jacksonville Center
09:36PM 29.6908 -83.5381 119° Southeast 524 603 38,000 -540 Descending Jacksonville Center
09:37PM 29.6142 -83.3919 121° Southeast 524 603 37,500 -540 Descending Jacksonville Center
09:38PM 29.5436 -83.2483 119° Southeast 524 603 37,000 -300 Descending Jacksonville Center
09:39PM 29.4667 -83.1050 122° Southeast 519 597 37,000 -300 Level Jacksonville Center
09:40PM 29.3939 -82.9617 120° Southeast 524 603 36,500 -1,020 Descending Jacksonville Center
09:41PM 29.3208 -82.8164 120° Southeast 524 603 35,000 -1,500 Descending Jacksonville Center
09:42PM 29.2475 -82.6761 121° Southeast 524 603 33,500 -1,980 Descending Jacksonville Center
09:43PM 29.1742 -82.5358 121° Southeast 519 597 31,100 -2,700 Descending Jacksonville Center
09:44PM 29.1028 -82.3958 120° Southeast 519 597 28,100 -3,360 Descending Jacksonville Center
09:45PM 29.0228 -82.2467 121° Southeast 519 597 24,400 -2,400 Descending Jacksonville Center
09:46PM 28.9553 -82.1142 120° Southeast 507 583 23,300 -1,020 Descending Jacksonville Center
09:47PM 28.8939 -81.9986 121° Southeast 484 557 22,400 -660 Descending Jacksonville Center
09:48PM 28.8303 -81.8736 120° Southeast 469 540 22,000 -240 Descending Jacksonville Center
09:49PM 28.7561 -81.7344 121° Southeast 464 534 22,000  Level Jacksonville Center
09:50PM 28.6989 -81.6264 121° Southeast 457 526 22,000  Level Jacksonville Center
09:51PM 28.6328 -81.5042 122° Southeast 457 526 22,000  Level Jacksonville Center
09:53PM 28.4569 -81.2436 127° Southeast 447 514 22,000  Level Miami Center
09:54PM 28.3819 -81.1675 138° Southeast 447 514 22,000  Level Miami Center
09:55PM 28.2708 -81.0525 138° Southeast 453 521 22,000 -300 Level Miami Center
09:56PM 28.1775 -80.9550 137° Southeast 460 529 21,500 -1,860 Descending Miami Center
09:57PM 28.0861 -80.8644 139° Southeast 448 516 18,300 -3,600 Descending Miami Center
09:58PM 28.0092 -80.7867 138° Southeast 403 464 14,300 -3,660 Descending Miami Center
09:59PM 27.9358 -80.7111 138° Southeast 369 425 10,800 -2,940 Descending Miami Center
10:00PM 27.8667 -80.6478 141° Southeast 336 387 8,300 -2,820 Descending Miami Center
10:01PM 27.8053 -80.6033 147° Southeast 305 351 5,300 -2,220 Descending Miami Center
10:02PM 27.7481 -80.5569 144° Southeast 276 318 4,000 -1,380 Descending Miami Center